Time;durP1;ratioP1;P1;durP2;ratioP2;P2;SDS_P1;SDS_P2;PMS_P1;PMS_P2;Temp;Humidity;BMP_temperature;BMP_pressure;BME280_temperature;BME280_humidity;BME280_pressure;Samples;Min_cycle;Max_cycle;Signal;HPM_P1;HPM_P2
2023/03/04 00:01:10;;;;;;;10.60;2.45;;;;;;;5.01;97.56;102674.28;5090186;28;20154;-36
2023/03/04 00:03:36;;;;;;;10.07;2.50;;;;;;;4.99;97.57;102665.56;5090951;28;20030;-35
2023/03/04 00:06:01;;;;;;;8.63;2.53;;;;;;;5.01;97.28;102674.28;5090373;28;20020;-35
2023/03/04 00:08:27;;;;;;;12.40;2.80;;;;;;;5.01;97.39;102668.94;5089761;28;20446;-36
2023/03/04 00:10:52;;;;;;;8.47;3.00;;;;;;;4.99;97.62;102671.78;5088979;28;20025;-35
2023/03/04 00:13:20;;;;;;;13.82;3.17;;;;;;;5.01;97.83;102671.59;5081271;28;20487;-35
2023/03/04 00:15:47;;;;;;;10.38;2.85;;;;;;;4.96;98.33;102668.53;5076637;28;20354;-35
2023/03/04 00:18:12;;;;;;;10.90;3.45;;;;;;;4.95;97.96;102665.00;5076851;28;20399;-35
2023/03/04 00:20:38;;;;;;;9.10;2.80;;;;;;;4.95;98.39;102665.00;5075990;28;20024;-35
2023/03/04 00:23:03;;;;;;;12.80;4.03;;;;;;;4.94;97.88;102662.50;5076187;28;20448;-35
2023/03/04 00:25:28;;;;;;;12.00;2.70;;;;;;;4.94;98.25;102671.38;5077053;28;20033;-36
2023/03/04 00:27:54;;;;;;;11.20;2.73;;;;;;;4.89;98.50;102652.22;5075819;28;20052;-36
2023/03/04 00:30:19;;;;;;;10.37;2.43;;;;;;;4.97;98.90;102656.81;5075841;28;20029;-36
2023/03/04 00:32:44;;;;;;;14.70;3.57;;;;;;;4.96;99.09;102661.34;5076573;28;20017;-36
2023/03/04 00:35:10;;;;;;;12.03;3.13;;;;;;;4.91;98.25;102664.47;5076039;28;20020;-36
2023/03/04 00:37:35;;;;;;;12.27;2.67;;;;;;;4.90;98.45;102657.41;5075719;28;20456;-36
2023/03/04 00:40:00;;;;;;;13.00;2.63;;;;;;;4.85;98.27;102648.97;5076011;28;20102;-36
2023/03/04 00:42:26;;;;;;;11.40;2.53;;;;;;;4.89;98.58;102658.41;5075590;28;20028;-36
2023/03/04 00:44:51;;;;;;;11.73;3.00;;;;;;;4.88;98.79;102664.78;5076208;28;20020;-36
2023/03/04 00:47:16;;;;;;;12.03;2.40;;;;;;;4.79;98.60;102649.59;5075766;28;20048;-36
2023/03/04 00:49:42;;;;;;;11.57;2.53;;;;;;;4.85;99.00;102659.69;5075779;28;20099;-36
2023/03/04 00:52:07;;;;;;;9.93;2.47;;;;;;;4.86;99.01;102663.22;5075666;28;20074;-36
2023/03/04 00:54:32;;;;;;;13.63;2.17;;;;;;;4.86;99.08;102655.19;5075689;28;20019;-36
2023/03/04 00:56:58;;;;;;;10.33;2.37;;;;;;;4.87;99.14;102663.06;5075616;28;20020;-36
2023/03/04 00:59:23;;;;;;;13.10;3.07;;;;;;;4.89;99.55;102665.63;5075599;28;20107;-36
2023/03/04 01:01:48;;;;;;;10.93;2.80;;;;;;;4.87;99.46;102662.22;5075849;28;20068;-36
2023/03/04 01:04:14;;;;;;;11.83;2.50;;;;;;;4.88;99.40;102662.09;5075499;28;20063;-36
2023/03/04 01:06:39;;;;;;;12.33;2.13;;;;;;;4.86;99.51;102658.69;5075195;28;20074;-36
2023/03/04 01:09:04;;;;;;;9.40;2.20;;;;;;;4.88;99.68;102664.78;5076024;28;20023;-36
2023/03/04 01:11:30;;;;;;;10.40;2.40;;;;;;;4.91;99.83;102664.47;5075116;28;20032;-36
2023/03/04 01:13:55;;;;;;;16.10;3.10;;;;;;;4.91;99.49;102666.31;5075673;28;20070;-36
2023/03/04 01:16:21;;;;;;;12.77;3.33;;;;;;;4.88;99.82;102664.78;5075326;28;20020;-36
2023/03/04 01:18:46;;;;;;;9.17;2.20;;;;;;;4.88;99.73;102672.81;5075705;28;20027;-36
2023/03/04 01:21:12;;;;;;;9.77;2.83;;;;;;;4.89;99.48;102666.47;5075342;28;20024;-36
2023/03/04 01:23:37;;;;;;;10.73;2.30;;;;;;;4.77;98.69;102651.56;5075457;28;20024;-36
2023/03/04 01:26:03;;;;;;;9.17;2.03;;;;;;;4.84;98.96;102668.75;5074068;28;20149;-36
2023/03/04 01:28:28;;;;;;;11.85;2.72;;;;;;;4.82;98.85;102654.63;5074678;28;20031;-36
2023/03/04 01:30:53;;;;;;;9.20;2.10;;;;;;;4.81;98.47;102660.97;5074991;28;20028;-36
2023/03/04 01:33:19;;;;;;;10.17;2.33;;;;;;;4.81;98.61;102663.66;5074878;28;20028;-36
2023/03/04 01:35:44;;;;;;;10.80;2.47;;;;;;;4.84;99.09;102658.03;5074575;28;20028;-36
2023/03/04 01:38:11;;;;;;;8.50;2.37;;;;;;;4.77;99.39;102645.34;5075001;28;20024;-36
2023/03/04 01:40:37;;;;;;;11.23;2.40;;;;;;;4.82;99.74;102651.09;5075167;28;20250;-36
2023/03/04 01:43:03;;;;;;;9.00;2.45;;;;;;;4.80;99.66;102645.06;5075022;28;20448;-36
2023/03/04 01:45:31;;;;;;;11.63;2.67;;;;;;;4.79;99.79;102649.59;5074647;28;20036;-36
2023/03/04 01:47:56;;;;;;;8.63;2.40;;;;;;;4.81;100.00;102647.59;5074252;28;20020;-36
2023/03/04 01:50:29;;;;;;;12.65;3.83;;;;;;;4.80;99.66;102640.53;5075121;28;20086;-36
2023/03/04 01:52:55;;;;;;;10.55;1.98;;;;;;;4.79;98.89;102643.38;5074466;28;20021;-36
2023/03/04 01:55:23;;;;;;;8.00;2.00;;;;;;;4.81;99.48;102638.69;5074712;28;20028;-36
2023/03/04 01:57:50;;;;;;;7.70;2.13;;;;;;;4.73;99.89;102620.66;5074383;28;20279;-36
2023/03/04 02:00:19;;;;;;;10.85;2.42;;;;;;;4.77;99.76;102627.44;5074118;28;20468;-36
2023/03/04 02:02:45;;;;;;;12.07;2.20;;;;;;;4.83;99.86;102621.50;5075312;28;20045;-36
2023/03/04 02:05:11;;;;;;;10.13;2.28;;;;;;;4.81;99.72;102620.78;5074568;28;20040;-36
2023/03/04 02:07:37;;;;;;;13.60;2.88;;;;;;;4.82;99.90;102618.94;5073963;28;20035;-36
2023/03/04 02:10:02;;;;;;;11.05;1.77;;;;;;;4.86;100.00;102618.50;5074761;28;20028;-36
2023/03/04 02:12:28;;;;;;;8.90;1.98;;;;;;;4.82;100.00;102610.91;5074145;28;20032;-36
2023/03/04 02:14:53;;;;;;;9.87;2.70;;;;;;;4.83;100.00;102610.78;5074641;28;20024;-36
2023/03/04 02:17:27;;;;;;;8.83;2.77;;;;;;;4.78;100.00;102613.06;5074640;28;20432;-36
2023/03/04 02:19:58;;;;;;;8.15;2.15;;;;;;;4.81;100.00;102609.22;5073717;28;20040;-36
2023/03/04 02:22:23;;;;;;;11.70;2.63;;;;;;;4.81;100.00;102612.75;5074418;28;20029;-36
2023/03/04 02:24:56;;;;;;;10.20;2.10;;;;;;;4.80;100.00;102613.75;5074039;28;20437;-36
2023/03/04 02:27:22;;;;;;;10.45;2.10;;;;;;;4.75;100.00;102607.97;5073618;28;20021;-36
2023/03/04 02:29:47;;;;;;;8.52;2.20;;;;;;;4.79;100.00;102612.06;5074164;28;20024;-36
2023/03/04 02:32:13;;;;;;;13.20;3.50;;;;;;;4.81;100.00;102603.84;5073826;28;20063;-37
2023/03/04 02:34:46;;;;;;;5.85;1.80;;;;;;;4.79;100.00;102606.69;5074138;28;20036;-35
2023/03/04 02:37:11;;;;;;;10.73;2.28;;;;;;;4.78;100.00;102599.66;5073562;28;20024;-37
2023/03/04 02:39:42;;;;;;;8.55;2.17;;;;;;;4.79;100.00;102595.97;5074621;28;20116;-36
2023/03/04 02:42:08;;;;;;;7.88;2.30;;;;;;;4.76;100.00;102598.94;5073384;28;20023;-36
2023/03/04 02:44:45;;;;;;;7.55;2.03;;;;;;;4.74;100.00;102597.44;5074066;28;20017;-36
2023/03/04 02:47:11;;;;;;;9.90;2.08;;;;;;;4.73;100.00;102593.03;5074005;28;20028;-36
2023/03/04 02:49:38;;;;;;;6.43;1.92;;;;;;;4.68;100.00;102579.25;5073925;28;20028;-36
2023/03/04 02:52:14;;;;;;;8.52;1.70;;;;;;;4.74;100.00;102592.06;5073351;28;20368;-36
2023/03/04 02:54:40;;;;;;;13.40;1.77;;;;;;;4.58;100.00;102560.53;5074508;28;20025;-36
2023/03/04 02:57:09;;;;;;;8.27;1.58;;;;;;;4.70;100.00;102580.78;5074102;28;20082;-36
2023/03/04 02:59:36;;;;;;;9.52;2.58;;;;;;;4.64;100.00;102574.19;5074405;28;20360;-36
2023/03/04 03:02:02;;;;;;;11.65;2.40;;;;;;;4.64;100.00;102573.38;5073434;28;20053;-36
2023/03/04 03:04:27;;;;;;;9.13;2.08;;;;;;;4.72;100.00;102586.84;5073534;28;20068;-36
2023/03/04 03:06:53;;;;;;;9.43;2.25;;;;;;;4.73;100.00;102585.00;5073473;28;20032;-36
2023/03/04 03:09:19;;;;;;;6.72;2.38;;;;;;;4.70;100.00;102578.09;5074333;28;20512;-36
2023/03/04 03:11:44;;;;;;;6.53;2.08;;;;;;;4.72;100.00;102581.47;5073392;28;20112;-36
2023/03/04 03:14:10;;;;;;;7.73;2.37;;;;;;;4.74;100.00;102576.81;5073101;28;20024;-36
2023/03/04 03:16:35;;;;;;;8.40;2.33;;;;;;;4.67;100.00;102558.81;5073469;28;20503;-36
2023/03/04 03:19:00;;;;;;;8.67;2.40;;;;;;;4.73;100.00;102569.75;5074195;28;20451;-36
2023/03/04 03:21:26;;;;;;;8.53;2.63;;;;;;;4.74;100.00;102576.81;5074135;28;20036;-36
2023/03/04 03:23:51;;;;;;;9.83;2.07;;;;;;;4.73;100.00;102585.84;5074114;28;20069;-36
2023/03/04 03:26:17;;;;;;;8.77;1.87;;;;;;;4.74;100.00;102582.19;5073054;28;20414;-36
2023/03/04 03:28:43;;;;;;;9.15;2.40;;;;;;;4.70;100.00;102575.44;5073330;28;20032;-36
2023/03/04 03:31:08;;;;;;;9.87;2.07;;;;;;;4.65;100.00;102559.81;5073309;28;20031;-36
2023/03/04 03:33:34;;;;;;;13.60;2.80;;;;;;;4.71;100.00;102563.72;5073564;28;20142;-36
2023/03/04 03:36:00;;;;;;;11.40;1.90;;;;;;;4.70;100.00;102569.22;5073224;28;20038;-36
2023/03/04 03:38:25;;;;;;;7.40;1.73;;;;;;;4.64;100.00;102566.16;5073171;28;20025;-36
2023/03/04 03:40:50;;;;;;;9.50;1.87;;;;;;;4.67;100.00;102570.38;5073598;28;20286;-36
2023/03/04 03:43:16;;;;;;;7.60;1.73;;;;;;;4.68;100.00;102577.41;5073454;28;20043;-36
2023/03/04 03:45:41;;;;;;;7.57;1.73;;;;;;;4.70;100.00;102558.50;5073146;28;20024;-36
2023/03/04 03:48:07;;;;;;;5.27;1.50;;;;;;;4.71;100.00;102566.38;5073111;28;20305;-36
2023/03/04 03:50:32;;;;;;;8.73;1.73;;;;;;;4.72;100.00;102561.88;5093160;28;20056;-36
2023/03/04 03:52:57;;;;;;;9.23;2.00;;;;;;;4.64;100.00;102559.97;5076516;28;20028;-36
2023/03/04 03:55:23;;;;;;;10.53;1.87;;;;;;;4.55;100.00;102534.06;5076385;28;20059;-36
2023/03/04 03:57:48;;;;;;;12.17;2.40;;;;;;;4.69;100.00;102568.38;5076697;28;20028;-36
2023/03/04 04:00:15;;;;;;;9.00;2.33;;;;;;;4.69;100.00;102575.59;5076375;28;20024;-36
2023/03/04 04:02:40;;;;;;;12.35;2.83;;;;;;;4.65;100.00;102550.91;5076386;28;20472;-36
2023/03/04 04:05:07;;;;;;;10.35;2.38;;;;;;;4.70;100.00;102564.72;5077164;28;20028;-36
2023/03/04 04:07:32;;;;;;;9.15;2.25;;;;;;;4.70;100.00;102553.16;5076115;28;20028;-36
2023/03/04 04:09:58;;;;;;;10.77;2.38;;;;;;;4.70;100.00;102564.72;5076790;28;20032;-36
2023/03/04 04:12:23;;;;;;;8.60;2.08;;;;;;;4.71;100.00;102558.34;5076463;28;20115;-37
2023/03/04 04:14:48;;;;;;;9.07;1.90;;;;;;;4.71;100.00;102566.38;5076807;28;20043;-37
2023/03/04 04:17:14;;;;;;;10.43;2.60;;;;;;;4.68;100.00;102558.66;5076665;28;20024;-36
2023/03/04 04:19:40;;;;;;;12.80;1.77;;;;;;;4.69;99.86;102573.75;5076319;28;20449;-36
2023/03/04 04:22:07;;;;;;;11.93;2.53;;;;;;;4.60;100.00;102550.53;5076141;28;20281;-36
2023/03/04 04:24:32;;;;;;;9.90;2.08;;;;;;;4.68;100.00;102564.00;5076800;28;20035;-36
2023/03/04 04:26:58;;;;;;;5.90;1.33;;;;;;;4.64;100.00;102558.13;5076472;28;20445;-36
2023/03/04 04:29:23;;;;;;;8.87;2.40;;;;;;;4.59;99.96;102549.69;5076153;28;20154;-36
2023/03/04 04:31:48;;;;;;;9.33;1.90;;;;;;;4.64;99.77;102558.13;5076139;28;20040;-36
2023/03/04 04:34:14;;;;;;;7.43;2.27;;;;;;;4.63;100.00;102559.09;5076048;28;20032;-36
2023/03/04 04:36:39;;;;;;;10.63;1.67;;;;;;;4.65;100.00;102553.59;5075720;28;20035;-37
2023/03/04 04:39:05;;;;;;;7.32;2.15;;;;;;;4.68;99.83;102563.16;5076627;28;20074;-36
2023/03/04 04:41:41;;;;;;;10.50;2.57;;;;;;;4.71;99.44;102570.91;5075912;28;20040;-36
2023/03/04 04:44:07;;;;;;;8.90;2.20;;;;;;;4.74;100.00;102568.78;5075675;28;20467;-36
2023/03/04 04:46:33;;;;;;;6.60;1.85;;;;;;;4.73;99.85;102567.06;5076659;28;20069;-37
2023/03/04 04:48:58;;;;;;;9.53;2.10;;;;;;;4.74;100.00;102563.44;5075520;28;20028;-36
2023/03/04 04:51:24;;;;;;;10.00;1.75;;;;;;;4.62;100.00;102553.88;5075484;28;20028;-37
2023/03/04 04:53:49;;;;;;;7.75;1.60;;;;;;;4.65;100.00;102556.28;5075432;28;20016;-36
2023/03/04 04:56:18;;;;;;;8.80;1.93;;;;;;;4.66;100.00;102557.97;5076270;28;20020;-36
2023/03/04 04:58:44;;;;;;;11.43;2.65;;;;;;;4.69;100.00;102568.38;5075444;28;20074;-36
2023/03/04 05:01:09;;;;;;;;;;;;;;;4.77;100.00;102581.88;5076011;28;20403;-36
2023/03/04 05:03:36;;;;;;;6.88;1.48;;;;;;;4.71;100.00;102587.84;5075567;28;19908;-36
2023/03/04 05:06:02;;;;;;;7.20;1.85;;;;;;;4.70;100.00;102582.63;5075253;28;20028;-36
2023/03/04 05:08:28;;;;;;;7.93;1.70;;;;;;;4.69;100.00;102583.63;5075859;28;20349;-36
2023/03/04 05:10:53;;;;;;;7.45;1.63;;;;;;;4.73;100.00;102580.47;5075351;28;20049;-36
2023/03/04 05:13:19;;;;;;;8.70;2.10;;;;;;;4.67;100.00;102578.41;5075979;28;20034;-36
2023/03/04 05:15:45;;;;;;;7.57;2.00;;;;;;;4.67;100.00;102578.41;5075258;28;20031;-36
2023/03/04 05:18:10;;;;;;;7.35;1.98;;;;;;;4.69;100.00;102576.44;5075087;28;20452;-36
2023/03/04 05:20:36;;;;;;;9.17;1.80;;;;;;;4.68;100.00;102577.41;5075103;28;20026;-36
2023/03/04 05:23:01;;;;;;;11.67;3.07;;;;;;;4.70;100.00;102577.28;5074997;28;20505;-36
2023/03/04 05:25:27;;;;;;;9.43;1.92;;;;;;;4.63;100.00;102575.16;5075080;28;20109;-36
2023/03/04 05:27:52;;;;;;;9.25;2.15;;;;;;;4.65;100.00;102578.56;5075322;28;20070;-36
2023/03/04 05:30:18;;;;;;;10.00;2.00;;;;;;;4.64;100.00;102571.53;5074683;28;20033;-36
2023/03/04 05:32:43;;;;;;;6.87;1.50;;;;;;;4.59;100.00;102565.78;5074609;28;20034;-36
2023/03/04 05:35:09;;;;;;;7.63;1.40;;;;;;;4.65;100.00;102573.19;5075730;28;20027;-36
2023/03/04 05:37:34;;;;;;;7.15;1.77;;;;;;;4.64;100.00;102578.72;5074556;28;20031;-36
2023/03/04 05:39:59;;;;;;;8.07;1.53;;;;;;;4.53;100.00;102552.94;5075347;28;20036;-36
2023/03/04 05:42:25;;;;;;;7.47;1.97;;;;;;;4.68;100.00;102582.75;5074679;28;20027;-36
2023/03/04 05:44:50;;;;;;;5.23;1.50;;;;;;;4.64;100.00;102586.75;5074502;28;20025;-36
2023/03/04 05:47:15;;;;;;;9.03;1.93;;;;;;;4.62;100.00;102584.22;5074898;28;20013;-36
2023/03/04 05:49:41;;;;;;;8.37;1.80;;;;;;;4.61;100.00;102590.56;5075152;28;20448;-35
2023/03/04 05:52:07;;;;;;;8.93;2.10;;;;;;;4.60;100.00;102593.41;5074836;28;20024;-35
2023/03/04 05:54:32;;;;;;;5.70;1.67;;;;;;;4.61;100.00;102587.03;5074267;28;20028;-35
2023/03/04 05:56:57;;;;;;;4.13;1.40;;;;;;;4.59;100.00;102581.84;5075238;28;20043;-36
2023/03/04 05:59:23;;;;;;;5.43;1.63;;;;;;;4.59;100.00;102589.03;5075270;28;20024;-35
2023/03/04 06:01:48;;;;;;;5.80;1.30;;;;;;;4.49;100.00;102575.69;5074750;28;20305;-36
2023/03/04 06:04:14;;;;;;;8.47;2.03;;;;;;;4.54;100.00;102589.50;5074577;28;20020;-35
2023/03/04 06:06:39;;;;;;;5.03;1.37;;;;;;;4.47;100.00;102574.97;5073076;28;20369;-35
2023/03/04 06:09:04;;;;;;;7.27;1.43;;;;;;;4.58;100.00;102598.06;5074879;28;20058;-35
2023/03/04 06:11:30;;;;;;;7.00;1.73;;;;;;;4.58;100.00;102588.16;5074004;28;20028;-35
2023/03/04 06:13:55;;;;;;;7.13;1.40;;;;;;;4.59;100.00;102594.41;5074160;28;20036;-36
2023/03/04 06:16:20;;;;;;;9.27;1.63;;;;;;;4.58;100.00;102595.38;5074738;28;20021;-35
2023/03/04 06:18:46;;;;;;;6.80;1.60;;;;;;;4.58;100.00;102595.38;5074402;28;20048;-35
2023/03/04 06:21:11;;;;;;;4.90;1.20;;;;;;;4.54;100.00;102592.16;5074285;28;20024;-35
2023/03/04 06:23:36;;;;;;;5.63;1.07;;;;;;;4.47;100.00;102574.16;5073918;28;20074;-35
2023/03/04 06:26:02;;;;;;;7.80;1.93;;;;;;;4.51;100.00;102596.97;5073976;28;20276;-35
2023/03/04 06:28:28;;;;;;;5.88;1.50;;;;;;;4.51;100.00;102591.63;5073973;28;20067;-35
2023/03/04 06:30:55;;;;;;;4.85;1.02;;;;;;;4.45;100.00;102587.69;5073652;28;20059;-35
2023/03/04 06:33:21;;;;;;;5.68;1.23;;;;;;;4.34;100.00;102575.34;5074622;28;20356;-35
2023/03/04 06:35:46;;;;;;;7.43;1.48;;;;;;;4.51;100.00;102605.00;5074398;28;20016;-36
2023/03/04 06:38:12;;;;;;;4.30;1.17;;;;;;;4.50;100.00;102597.97;5073566;28;20028;-35
2023/03/04 06:40:37;;;;;;;8.03;1.70;;;;;;;4.50;100.00;102600.66;5073734;28;20039;-35
2023/03/04 06:43:02;;;;;;;4.97;0.93;;;;;;;4.49;100.00;102607.84;5073684;28;20025;-36
2023/03/04 06:45:28;;;;;;;8.60;1.90;;;;;;;4.49;100.00;102607.84;5073748;28;20325;-36
2023/03/04 06:47:53;;;;;;;5.20;1.17;;;;;;;4.43;100.00;102597.69;5073772;28;20052;-36
2023/03/04 06:50:19;;;;;;;7.47;1.50;;;;;;;4.39;100.00;102594.50;5074528;28;20033;-36
2023/03/04 06:52:44;;;;;;;5.80;1.35;;;;;;;4.44;100.00;102598.53;5073629;28;20055;-36
2023/03/04 06:55:11;;;;;;;4.20;1.27;;;;;;;4.35;100.00;102592.25;5074282;28;20120;-36
2023/03/04 06:57:37;;;;;;;6.88;1.55;;;;;;;4.36;100.00;102600.13;5073333;28;20020;-36
2023/03/04 07:00:03;;;;;;;6.53;2.05;;;;;;;4.44;100.00;102614.59;5074679;28;20029;-36
2023/03/04 07:02:29;;;;;;;5.18;1.42;;;;;;;4.45;100.00;102611.81;5074379;28;20048;-36
2023/03/04 07:04:54;;;;;;;7.47;1.35;;;;;;;4.51;100.00;102613.03;5074129;28;20031;-36
2023/03/04 07:07:20;;;;;;;6.67;1.30;;;;;;;4.48;100.00;102605.28;5074031;28;20025;-36
2023/03/04 07:09:45;;;;;;;6.10;1.67;;;;;;;4.54;100.00;102604.69;5073572;28;20028;-36
2023/03/04 07:12:10;;;;;;;7.37;1.67;;;;;;;4.54;100.00;102613.59;5073452;28;20109;-35
2023/03/04 07:14:36;;;;;;;3.53;1.20;;;;;;;4.58;100.00;102606.94;5073788;28;20138;-35
2023/03/04 07:17:01;;;;;;;7.67;1.57;;;;;;;4.60;100.00;102606.81;5074001;28;20341;-35
2023/03/04 07:19:29;;;;;;;6.47;1.60;;;;;;;4.63;100.00;102614.53;5073949;28;20069;-35
2023/03/04 07:21:55;;;;;;;4.35;1.20;;;;;;;4.62;100.00;102615.53;5073246;28;20031;-35
2023/03/04 07:24:20;;;;;;;4.60;1.40;;;;;;;4.61;100.00;102608.47;5076875;28;20020;-36
2023/03/04 07:26:46;;;;;;;6.67;1.97;;;;;;;4.67;100.00;102613.25;5077414;28;20017;-36
2023/03/04 07:29:12;;;;;;;4.33;1.40;;;;;;;4.68;100.00;102622.13;5077348;28;20057;-36
2023/03/04 07:31:37;;;;;;;;;;;;;;;4.74;100.00;102621.53;5077662;28;20043;-37
2023/03/04 07:34:10;;;;;;;5.53;1.20;;;;;;;4.68;100.00;102619.44;5076960;28;19904;-36
2023/03/04 07:36:36;;;;;;;8.27;1.85;;;;;;;4.71;100.00;102625.34;5077162;28;20054;-35
2023/03/04 07:39:03;;;;;;;7.43;1.63;;;;;;;4.59;100.00;102605.13;5076796;28;20036;-36
2023/03/04 07:41:28;;;;;;;7.30;1.67;;;;;;;4.75;100.00;102633.94;5077279;28;20029;-36
2023/03/04 07:43:58;;;;;;;6.35;1.50;;;;;;;4.69;100.00;102624.66;5077245;28;20111;-36
2023/03/04 07:46:23;;;;;;;8.32;2.70;;;;;;;4.74;100.00;102625.06;5076946;28;20032;-36
2023/03/04 07:48:51;;;;;;;7.97;2.10;;;;;;;4.76;100.00;102627.59;5076867;28;20016;-37
2023/03/04 07:51:19;;;;;;;7.60;1.77;;;;;;;4.82;100.00;102637.69;5076659;28;20021;-35
2023/03/04 07:53:47;;;;;;;7.78;2.00;;;;;;;4.83;100.00;102640.25;5077624;28;20025;-36
2023/03/04 07:56:16;;;;;;;5.90;1.88;;;;;;;4.85;100.00;102643.63;5077605;28;20025;-35
2023/03/04 07:58:42;;;;;;;4.72;1.55;;;;;;;4.86;100.00;102639.94;5076674;28;20017;-36
2023/03/04 08:01:09;;;;;;;4.20;1.63;;;;;;;4.87;100.00;102644.31;5076713;28;20032;-35
2023/03/04 08:03:35;;;;;;;4.28;1.60;;;;;;;4.93;100.00;102644.69;5077218;28;20356;-36
2023/03/04 08:06:03;;;;;;;5.33;1.50;;;;;;;4.96;100.00;102647.09;5076616;28;20103;-36
2023/03/04 08:08:29;;;;;;;5.93;1.80;;;;;;;5.00;100.00;102645.78;5076551;28;20360;-35
2023/03/04 08:10:54;;;;;;;4.27;1.50;;;;;;;5.00;100.00;102637.75;5076326;28;20032;-36
2023/03/04 08:13:19;;;;;;;5.73;1.60;;;;;;;4.91;100.00;102620.72;5076173;28;20035;-36
2023/03/04 08:15:45;;;;;;;5.23;1.73;;;;;;;5.10;100.00;102641.22;5076734;28;20021;-36
2023/03/04 08:18:11;;;;;;;3.97;1.50;;;;;;;5.12;100.00;102640.09;5075167;28;20020;-36
2023/03/04 08:20:39;;;;;;;;;;;;;;;5.24;100.00;102638.00;5077610;28;20020;-36
2023/03/04 08:23:06;;;;;;;6.85;1.67;;;;;;;5.31;100.00;102639.06;5076253;28;20244;-36
2023/03/04 08:25:31;;;;;;;5.05;1.60;;;;;;;5.37;100.00;102638.50;5077091;28;20356;-36
2023/03/04 08:27:57;;;;;;;4.83;1.57;;;;;;;5.30;100.00;102617.78;5076258;28;20020;-36
2023/03/04 08:30:23;;;;;;;7.80;1.52;;;;;;;5.50;100.00;102643.44;5076997;28;20376;-36
2023/03/04 08:32:48;;;;;;;6.60;1.40;;;;;;;5.53;100.00;102640.47;5076069;28;20025;-36
2023/03/04 08:35:13;;;;;;;7.17;2.33;;;;;;;5.43;100.00;102612.88;5075947;28;20025;-36
2023/03/04 08:37:39;;;;;;;6.70;1.63;;;;;;;5.67;100.00;102644.47;5076045;28;20021;-36
2023/03/04 08:40:05;;;;;;;7.30;1.77;;;;;;;5.76;100.00;102648.91;5076307;28;20472;-36
2023/03/04 08:42:30;;;;;;;7.78;1.95;;;;;;;5.82;100.00;102648.28;5075399;28;20500;-36
2023/03/04 08:44:55;;;;;;;6.80;2.30;;;;;;;5.89;100.00;102646.63;5075703;28;20064;-36
2023/03/04 08:47:21;;;;;;;5.93;1.30;;;;;;;5.92;100.00;102651.75;5074764;28;20025;-36
2023/03/04 08:49:46;;;;;;;4.23;1.43;;;;;;;5.93;100.00;102640.00;5075694;28;20453;-36
2023/03/04 08:52:11;;;;;;;5.10;1.50;;;;;;;6.01;100.00;102641.06;5076159;28;20472;-36
2023/03/04 08:54:37;;;;;;;6.63;1.43;;;;;;;6.11;100.00;102647.19;5075855;28;20021;-36
2023/03/04 08:57:03;;;;;;;4.87;1.57;;;;;;;6.02;100.00;102627.47;5076031;28;20024;-36
2023/03/04 08:59:28;;;;;;;;;;;;;;;6.22;100.00;102644.22;5076074;28;20049;-36
2023/03/04 09:01:53;;;;;;;5.15;1.52;;;;;;;6.11;100.00;102631.06;5075863;28;19912;-36
2023/03/04 09:04:20;;;;;;;5.23;1.63;;;;;;;6.18;100.00;102642.84;5075853;28;20459;-36
2023/03/04 09:06:45;;;;;;;6.28;1.67;;;;;;;6.23;100.00;102642.38;5075422;28;20063;-37
2023/03/04 09:09:11;;;;;;;6.47;1.50;;;;;;;6.24;100.00;102626.09;5075546;28;20029;-37
2023/03/04 09:11:36;;;;;;;5.07;1.53;;;;;;;6.23;100.00;102621.72;5075646;28;20294;-36
2023/03/04 09:14:02;;;;;;;7.25;2.00;;;;;;;6.32;100.00;102634.19;5075872;28;20377;-35
2023/03/04 09:16:27;;;;;;;20.07;3.03;;;;;;;6.36;100.00;102635.56;5075307;28;20028;-35
2023/03/04 09:18:53;;;;;;;4.93;1.80;;;;;;;6.40;100.00;102610.06;5074937;28;20028;-36
2023/03/04 09:21:18;;;;;;;7.20;1.60;;;;;;;6.61;100.00;102616.88;5075513;28;20028;-35
2023/03/04 09:23:43;;;;;;;3.50;1.17;;;;;;;6.69;100.00;102616.94;5075686;28;20028;-36
2023/03/04 09:26:22;;;;;;;5.37;1.70;;;;;;;6.81;100.00;102618.28;5075996;28;20017;-35
2023/03/04 09:28:53;;;;;;;6.25;1.42;;;;;;;6.87;100.00;102611.41;5074761;28;20372;-35
2023/03/04 09:31:18;;;;;;;5.07;1.17;;;;;;;6.91;100.00;102612.78;5074933;28;20472;-36
2023/03/04 09:33:44;;;;;;;5.83;1.40;;;;;;;6.91;100.00;102612.78;5074993;28;20029;-36
2023/03/04 09:36:12;;;;;;;7.22;1.70;;;;;;;6.90;100.00;102613.78;5074899;28;20263;-36
2023/03/04 09:38:38;;;;;;;3.25;1.30;;;;;;;6.94;100.00;102610.63;5075403;28;20495;-36
2023/03/04 09:41:06;;;;;;;;;;;;;;;7.09;100.00;102615.38;5075770;28;20403;-36
2023/03/04 09:43:32;;;;;;;4.35;1.55;;;;;;;6.90;100.00;102603.03;5074644;28;20435;-36
2023/03/04 09:46:05;;;;;;;10.02;1.40;;;;;;;6.90;100.00;102611.94;5074087;28;20523;-36
2023/03/04 09:48:48;;;;;;;3.53;1.08;;;;;;;6.89;100.00;102612.97;5074590;28;20460;-37
2023/03/04 09:51:21;;;;;;;4.20;1.10;;;;;;;6.78;100.00;102607.84;5075067;28;20070;-35
2023/03/04 09:53:57;;;;;;;2.92;1.48;;;;;;;6.74;100.00;102611.06;5075035;28;20026;-34
2023/03/04 09:56:24;;;;;;;6.77;1.20;;;;;;;6.70;100.00;102618.59;5075341;28;20395;-35
2023/03/04 09:59:28;;;;;;;3.50;1.08;;;;;;;6.70;100.00;102611.38;5074613;28;20714;-35
2023/03/04 10:01:55;;;;;;;4.32;1.30;;;;;;;6.69;100.00;102617.75;5071098;28;20045;-35
2023/03/04 10:04:34;;;;;;;4.65;1.27;;;;;;;6.57;100.00;102592.16;5074544;28;20025;-35
2023/03/04 10:07:01;;;;;;;7.13;2.13;;;;;;;6.61;100.00;102588.16;5073966;28;20452;-35
2023/03/04 10:09:48;;;;;;;4.00;1.30;;;;;;;6.86;100.00;102609.75;5074788;28;20035;-35
2023/03/04 10:12:19;;;;;;;5.20;1.88;;;;;;;6.95;100.00;102609.59;5075002;28;20035;-35
2023/03/04 10:14:52;;;;;;;7.22;1.58;;;;;;;7.06;100.00;102610.28;5073912;28;20028;-35
2023/03/04 10:17:20;;;;;;;4.00;1.30;;;;;;;7.23;100.00;102603.97;5074470;28;20024;-35
2023/03/04 10:20:02;;;;;;;4.78;1.20;;;;;;;7.33;100.00;102599.25;5074702;28;20024;-35
2023/03/04 10:22:50;;;;;;;3.42;1.20;;;;;;;7.41;99.77;102601.94;5073931;28;20024;-36
2023/03/04 10:25:26;;;;;;;5.32;1.20;;;;;;;7.33;99.21;102607.34;5065771;28;20028;-35
2023/03/04 10:28:06;;;;;;;3.43;1.30;;;;;;;7.30;98.19;102604.97;5073842;28;20020;-36
2023/03/04 10:30:52;;;;;;;4.35;1.17;;;;;;;7.16;98.76;102611.00;5073936;28;20056;-35
2023/03/04 10:33:20;;;;;;;4.90;1.40;;;;;;;7.05;99.75;102603.25;5074478;28;20024;-35
2023/03/04 10:36:11;;;;;;;3.92;1.42;;;;;;;6.99;100.00;102610.13;5074164;28;20024;-35
2023/03/04 10:38:40;;;;;;;4.80;1.60;;;;;;;6.85;100.00;102605.38;5066366;28;20040;-35
2023/03/04 10:41:15;;;;;;;6.47;1.88;;;;;;;6.74;100.00;102598.47;5073390;28;20028;-35
2023/03/04 10:43:44;;;;;;;2.90;1.02;;;;;;;6.66;100.00;102591.19;5073684;28;20027;-35
2023/03/04 10:46:11;;;;;;;2.53;0.90;;;;;;;6.62;100.00;102597.06;5074315;28;20388;-35
2023/03/04 10:48:40;;;;;;;3.53;0.98;;;;;;;6.55;100.00;102593.34;5073915;28;20354;-35
2023/03/04 10:51:28;;;;;;;4.72;0.90;;;;;;;6.64;100.00;102601.28;5073407;28;20086;-35
2023/03/04 10:54:09;;;;;;;2.63;0.90;;;;;;;6.59;100.00;102605.47;5074101;28;20483;-35
2023/03/04 10:56:45;;;;;;;2.08;0.80;;;;;;;6.58;100.00;102601.06;5074055;28;20086;-35
2023/03/04 10:59:54;;;;;;;2.65;0.80;;;;;;;6.65;100.00;102600.28;5073797;28;20460;-35
2023/03/04 11:02:21;;;;;;;4.00;1.10;;;;;;;6.65;100.00;102600.28;5044517;28;20404;-35
2023/03/04 11:04:52;;;;;;;4.25;0.93;;;;;;;6.52;100.00;102583.75;5073975;28;20051;-35
2023/03/04 11:07:18;;;;;;;3.03;0.90;;;;;;;6.61;100.00;102595.38;5074310;28;20046;-35
2023/03/04 11:09:44;;;;;;;;;;;;;;;6.70;100.00;102591.72;5074127;28;20035;-36
2023/03/04 11:12:13;;;;;;;2.67;1.00;;;;;;;6.67;100.00;102584.81;5073225;28;19912;-36
2023/03/04 11:14:50;;;;;;;6.47;1.48;;;;;;;6.71;100.00;102564.66;5073676;28;20025;-35
2023/03/04 11:17:24;;;;;;;4.00;1.25;;;;;;;6.95;100.00;102574.63;5074269;28;20403;-36
2023/03/04 11:20:01;;;;;;;4.35;1.10;;;;;;;7.07;100.00;102568.94;5074041;28;20115;-36
2023/03/04 11:22:29;;;;;;;2.78;1.10;;;;;;;7.30;100.00;102569.97;5073765;28;20031;-36
2023/03/04 11:24:58;;;;;;;4.65;1.48;;;;;;;7.48;100.00;102567.97;5073521;28;20415;-36
2023/03/04 11:27:35;;;;;;;3.47;1.27;;;;;;;7.69;100.00;102558.53;5072985;28;20024;-36